CML weather

Camooweal Airport
Queensland, Australia

Public forecast

Using degrees Celsius for public forecast. Weather courtesy of forecast.io.

Closest aviation weather report (METAR) to Camooweal Airport

Closest report is Mount Isa Airport, 89.1 nm (165.0 km) ESE. Retrieved 2019/10/19 13:30 UTC (0 seconds ago):

YBMA 191330Z AUTO 19006KT 9999 // NCD 24/M04 Q1019 RF000/0000

Closest aviation forecast (TAF) to Camooweal Airport

Closest forecast is Mount Isa Airport, 89.1 nm (165.0 km) ESE. Retrieved 2019/10/19 12:03 UTC (1 hour ago):

TAF TAF YBMA 191007Z 1912/1924 19006KT CAVOK FM192200 14014KT CAVOK